createdAt,value
2023-01-28T00:01:18.700Z,100293.88
2023-01-28T00:03:45.296Z,100291.25
2023-01-28T00:06:14.535Z,100296.45
2023-01-28T00:08:41.828Z,100294.48
2023-01-28T00:11:12.023Z,100295.27
2023-01-28T00:13:38.588Z,100299.48
2023-01-28T00:16:07.400Z,100298.40
2023-01-28T00:18:34.356Z,100295.41
2023-01-28T00:21:04.599Z,100298.27
2023-01-28T00:23:33.998Z,100298.07
2023-01-28T00:26:02.604Z,100298.52
2023-01-28T00:28:29.226Z,100297.20
2023-01-28T00:30:55.770Z,100293.77
2023-01-28T00:33:22.285Z,100296.13
2023-01-28T00:35:58.041Z,100296.77
2023-01-28T00:38:24.555Z,100299.27
2023-01-28T00:40:51.009Z,100301.98
2023-01-28T00:43:17.507Z,100309.20
2023-01-28T00:45:44.031Z,100309.36
2023-01-28T00:48:10.563Z,100312.87
2023-01-28T00:50:37.663Z,100314.50
2023-01-28T00:53:04.492Z,100313.00
2023-01-28T00:55:31.016Z,100316.66
2023-01-28T00:57:57.459Z,100314.79
2023-01-28T01:00:24.024Z,100312.34
2023-01-28T01:02:50.531Z,100314.15
2023-01-28T01:05:17.563Z,100317.52
2023-01-28T01:07:44.181Z,100316.10
2023-01-28T01:10:15.987Z,100315.05
2023-01-28T01:12:42.697Z,100317.14
2023-01-28T01:15:10.684Z,100314.64
2023-01-28T01:17:41.991Z,100317.66
2023-01-28T01:20:15.320Z,100314.61
2023-01-28T01:22:41.915Z,100315.54
2023-01-28T01:25:08.702Z,100317.42
2023-01-28T01:27:35.282Z,100323.38
2023-01-28T01:30:01.832Z,100322.77
2023-01-28T01:32:32.898Z,100323.02
2023-01-28T01:34:59.356Z,100324.68
2023-01-28T01:37:25.929Z,100323.13
2023-01-28T01:39:52.541Z,100325.14
2023-01-28T01:42:19.297Z,100327.26
2023-01-28T01:45:02.402Z,100328.05
2023-01-28T01:47:39.333Z,100327.95
2023-01-28T01:50:26.097Z,100331.35
2023-01-28T01:52:57.189Z,100330.31
2023-01-28T01:55:27.539Z,100329.64
2023-01-28T01:57:56.987Z,100332.07
2023-01-28T02:00:23.815Z,100330.33
2023-01-28T02:02:52.716Z,100332.27
2023-01-28T02:05:22.082Z,100335.58
2023-01-28T02:07:51.840Z,100333.41
2023-01-28T02:10:18.679Z,100330.41
2023-01-28T02:12:53.530Z,100333.27
2023-01-28T02:15:23.949Z,100332.88
2023-01-28T02:17:51.515Z,100328.84
2023-01-28T02:20:48.576Z,100326.60
2023-01-28T02:23:23.966Z,100326.48
2023-01-28T02:25:56.578Z,100324.69
2023-01-28T02:28:27.119Z,100326.94
2023-01-28T02:31:18.607Z,100322.75
2023-01-28T02:33:53.905Z,100322.36
2023-01-28T02:36:54.007Z,100321.39
2023-01-28T02:39:24.804Z,100321.92
2023-01-28T02:41:59.760Z,100323.70
2023-01-28T02:44:26.401Z,100320.82
2023-01-28T02:46:53.436Z,100321.13
2023-01-28T02:49:25.937Z,100321.41
2023-01-28T02:52:20.054Z,100321.52
2023-01-28T02:54:46.583Z,100324.10
2023-01-28T02:57:32.043Z,100320.64
2023-01-28T03:00:24.381Z,100316.67
2023-01-28T03:03:02.815Z,100319.06
2023-01-28T03:05:42.777Z,100319.86
2023-01-28T03:08:10.486Z,100319.18
2023-01-28T03:10:37.820Z,100320.15
2023-01-28T03:13:04.690Z,100318.17
2023-01-28T03:15:39.790Z,100318.88
2023-01-28T03:18:15.568Z,100321.73
2023-01-28T03:21:09.409Z,100317.02
2023-01-28T03:23:48.136Z,100321.81
2023-01-28T03:26:15.737Z,100319.40
2023-01-28T03:28:46.548Z,100322.07
2023-01-28T03:31:16.289Z,100324.36
2023-01-28T03:33:44.296Z,100325.11
2023-01-28T03:36:11.518Z,100328.04
2023-01-28T03:38:41.067Z,100328.22
2023-01-28T03:41:11.971Z,100331.46
2023-01-28T03:43:38.744Z,100334.55
2023-01-28T03:46:05.410Z,100333.88
2023-01-28T03:48:32.568Z,100335.64
2023-01-28T03:50:59.080Z,100338.27
2023-01-28T03:53:25.523Z,100337.53
2023-01-28T03:55:54.193Z,100340.52
2023-01-28T03:58:21.392Z,100337.96
2023-01-28T04:00:48.051Z,100338.52
2023-01-28T04:03:17.783Z,100340.20
2023-01-28T04:05:59.713Z,100339.34
2023-01-28T04:08:26.342Z,100336.92
2023-01-28T04:10:52.995Z,100338.41
2023-01-28T04:13:19.536Z,100337.08
2023-01-28T04:15:46.905Z,100340.30
2023-01-28T04:18:13.520Z,100337.15
2023-01-28T04:20:40.566Z,100341.29
2023-01-28T04:23:07.562Z,100340.34
2023-01-28T04:25:34.722Z,100342.48
2023-01-28T04:28:01.458Z,100340.73
2023-01-28T04:30:28.042Z,100339.77
2023-01-28T04:32:54.624Z,100342.02
2023-01-28T04:35:21.135Z,100344.89
2023-01-28T04:37:47.596Z,100347.58
2023-01-28T04:40:14.219Z,100350.44
2023-01-28T04:42:40.782Z,100351.23
2023-01-28T04:45:08.116Z,100349.98
2023-01-28T04:47:34.575Z,100352.58
2023-01-28T04:50:01.037Z,100356.43
2023-01-28T04:52:27.509Z,100353.29
2023-01-28T04:54:54.026Z,100354.63
2023-01-28T04:57:20.532Z,100354.80
2023-01-28T04:59:46.994Z,100355.52
2023-01-28T05:02:13.616Z,100356.71
2023-01-28T05:04:40.122Z,100364.08
2023-01-28T05:07:06.594Z,100365.59
2023-01-28T05:09:33.067Z,100364.21
2023-01-28T05:11:59.537Z,100363.73
2023-01-28T05:14:26.105Z,100368.17
2023-01-28T05:16:52.579Z,100370.20
2023-01-28T05:19:19.512Z,100371.11
2023-01-28T05:21:46.002Z,100379.91
2023-01-28T05:24:12.596Z,100381.09
2023-01-28T05:26:39.401Z,100384.36
2023-01-28T05:29:05.974Z,100382.09
2023-01-28T05:31:32.641Z,100387.38
2023-01-28T05:33:59.210Z,100388.38
2023-01-28T05:36:25.732Z,100387.88
2023-01-28T05:38:52.195Z,100390.36
2023-01-28T05:41:18.665Z,100385.94
2023-01-28T05:43:45.158Z,100393.08
2023-01-28T05:46:11.629Z,100391.00
2023-01-28T05:48:38.108Z,100394.10
2023-01-28T05:51:04.867Z,100398.91
2023-01-28T05:53:32.404Z,100398.54
2023-01-28T05:55:58.986Z,100395.77
2023-01-28T05:58:25.518Z,100401.03
2023-01-28T06:00:54.995Z,100398.45
2023-01-28T06:03:21.454Z,100400.84
2023-01-28T06:05:48.595Z,100403.83
2023-01-28T06:08:15.353Z,100407.38
2023-01-28T06:10:41.875Z,100409.48
2023-01-28T06:13:08.395Z,100408.46
2023-01-28T06:15:34.951Z,100410.95
2023-01-28T06:18:01.501Z,100417.55
2023-01-28T06:20:28.061Z,100418.64
2023-01-28T06:22:54.588Z,100420.39
2023-01-28T06:25:21.046Z,100429.30
2023-01-28T06:27:47.541Z,100425.98
2023-01-28T06:30:14.524Z,100427.92
2023-01-28T06:32:41.348Z,100432.03
2023-01-28T06:35:08.122Z,100435.76
2023-01-28T06:37:34.740Z,100435.31
2023-01-28T06:40:01.318Z,100444.48
2023-01-28T06:42:27.781Z,100448.05
2023-01-28T06:44:54.287Z,100448.55
2023-01-28T06:47:20.771Z,100452.23
2023-01-28T06:49:47.267Z,100456.98
2023-01-28T06:52:13.752Z,100462.76
2023-01-28T06:54:40.246Z,100465.06
2023-01-28T06:57:06.748Z,100466.36
2023-01-28T06:59:33.221Z,100471.09
2023-01-28T07:01:59.821Z,100471.74
2023-01-28T07:04:26.333Z,100474.02
2023-01-28T07:06:52.777Z,100480.80
2023-01-28T07:09:19.351Z,100479.06
2023-01-28T07:11:45.852Z,100481.64
2023-01-28T07:14:12.370Z,100486.66
2023-01-28T07:16:38.860Z,100486.48
2023-01-28T07:19:05.341Z,100487.11
2023-01-28T07:21:31.815Z,100488.56
2023-01-28T07:23:58.327Z,100491.81
2023-01-28T07:26:24.881Z,100497.46
2023-01-28T07:28:51.442Z,100495.34
2023-01-28T07:31:18.069Z,100496.96
2023-01-28T07:33:44.638Z,100502.13
2023-01-28T07:36:11.116Z,100502.48
2023-01-28T07:38:37.602Z,100502.23
2023-01-28T07:41:04.249Z,100502.67
2023-01-28T07:43:30.785Z,100508.31
2023-01-28T07:46:00.784Z,100505.23
2023-01-28T07:48:27.433Z,100506.52
2023-01-28T07:50:54.019Z,100505.88
2023-01-28T07:53:20.590Z,100506.47
2023-01-28T07:55:47.037Z,100507.36
2023-01-28T07:58:13.547Z,100511.70
2023-01-28T08:00:40.082Z,100510.46
2023-01-28T08:03:13.552Z,100512.66
2023-01-28T08:05:46.466Z,100515.73
2023-01-28T08:08:12.966Z,100514.99
2023-01-28T08:10:40.395Z,100517.67
2023-01-28T08:13:07.814Z,100518.36
2023-01-28T08:15:36.333Z,100520.70
2023-01-28T08:18:04.360Z,100522.55
2023-01-28T08:20:31.203Z,100519.58
2023-01-28T08:23:08.775Z,100520.80
2023-01-28T08:25:36.218Z,100524.66
2023-01-28T08:28:03.769Z,100525.30
2023-01-28T08:30:31.062Z,100526.83
2023-01-28T08:32:58.413Z,100535.93
2023-01-28T08:35:26.209Z,100537.22
2023-01-28T08:37:53.372Z,100538.65
2023-01-28T08:40:20.893Z,100539.70
2023-01-28T08:42:52.175Z,100543.94
2023-01-28T08:45:19.697Z,100542.77
2023-01-28T08:47:57.652Z,100546.89
2023-01-28T08:50:26.403Z,100547.63
2023-01-28T08:52:57.426Z,100545.48
2023-01-28T08:55:25.065Z,100553.36
2023-01-28T08:57:51.901Z,100555.19
2023-01-28T09:00:19.357Z,100553.75
2023-01-28T09:02:45.907Z,100561.83
2023-01-28T09:05:12.538Z,100560.70
2023-01-28T09:07:39.199Z,100561.81
2023-01-28T09:10:06.580Z,100563.81
2023-01-28T09:12:33.421Z,100561.25
2023-01-28T09:14:59.943Z,100569.45
2023-01-28T09:17:26.462Z,100568.09
2023-01-28T09:19:52.985Z,100569.13
2023-01-28T09:22:19.470Z,100571.41
2023-01-28T09:24:45.944Z,100574.98
2023-01-28T09:27:12.622Z,100575.25
2023-01-28T09:29:42.736Z,100577.66
2023-01-28T09:32:09.311Z,100574.98
2023-01-28T09:34:35.820Z,100579.02
2023-01-28T09:37:02.302Z,100580.56
2023-01-28T09:39:28.812Z,100576.94
2023-01-28T09:42:09.707Z,100575.02
2023-01-28T09:45:00.955Z,100572.16
2023-01-28T09:47:35.424Z,100565.23
2023-01-28T09:50:07.105Z,100566.65
2023-01-28T09:52:39.179Z,100561.50
2023-01-28T09:55:44.354Z,100562.00
2023-01-28T09:58:12.704Z,100559.91
2023-01-28T10:01:02.198Z,100556.86
2023-01-28T10:03:40.970Z,100554.46
2023-01-28T10:06:24.214Z,100553.98
2023-01-28T10:08:50.697Z,100558.77
2023-01-28T10:11:39.965Z,100557.63
2023-01-28T10:14:10.379Z,100554.03
2023-01-28T10:17:17.897Z,100556.64
2023-01-28T10:20:00.683Z,100549.56
2023-01-28T10:22:35.229Z,100551.32
2023-01-28T10:25:15.159Z,100547.11
2023-01-28T10:27:43.235Z,100550.39
2023-01-28T10:30:20.253Z,100550.77
2023-01-28T10:32:52.394Z,100548.30
2023-01-28T10:35:19.807Z,100544.54
2023-01-28T10:37:46.484Z,100548.48
2023-01-28T10:40:17.004Z,100549.47
2023-01-28T10:42:44.778Z,100552.05
2023-01-28T10:45:13.967Z,100551.48
2023-01-28T10:47:59.365Z,100554.88
2023-01-28T10:50:28.269Z,100554.75
2023-01-28T10:52:59.390Z,100549.80
2023-01-28T10:55:55.702Z,100551.71
2023-01-28T10:58:28.309Z,100553.18
2023-01-28T11:00:59.622Z,100549.17
2023-01-28T11:03:26.806Z,100553.74
2023-01-28T11:05:55.711Z,100552.88
2023-01-28T11:08:25.030Z,100551.05
2023-01-28T11:10:52.797Z,100547.66
2023-01-28T11:13:20.964Z,100547.91
2023-01-28T11:15:49.774Z,100543.39
2023-01-28T11:18:24.122Z,100542.67
2023-01-28T11:21:18.603Z,100543.69
2023-01-28T11:23:53.337Z,100544.02
2023-01-28T11:26:24.794Z,100540.80
2023-01-28T11:28:52.277Z,100537.92
2023-01-28T11:31:21.772Z,100539.12
2023-01-28T11:33:58.697Z,100539.42
2023-01-28T11:36:27.679Z,100540.48
2023-01-28T11:38:57.181Z,100538.48
2023-01-28T11:41:30.776Z,100537.66
2023-01-28T11:43:59.447Z,100533.49
2023-01-28T11:46:55.385Z,100530.59
2023-01-28T11:49:21.837Z,100527.48
2023-01-28T11:52:14.241Z,100526.53
2023-01-28T11:55:18.272Z,100526.73
2023-01-28T11:58:02.935Z,100520.84
2023-01-28T12:00:40.459Z,100517.61
2023-01-28T12:03:42.352Z,100516.31
2023-01-28T12:06:11.580Z,100518.38
2023-01-28T12:09:18.524Z,100520.27
2023-01-28T12:11:51.048Z,100521.61
2023-01-28T12:14:23.296Z,100518.10
2023-01-28T12:17:05.984Z,100515.00
2023-01-28T12:19:47.914Z,100516.62
2023-01-28T12:22:38.845Z,100519.59
2023-01-28T12:25:36.597Z,100517.33
2023-01-28T12:28:44.751Z,100518.61
2023-01-28T12:31:35.609Z,100513.68
2023-01-28T12:34:13.203Z,100514.63
2023-01-28T12:36:42.645Z,100512.79
2023-01-28T12:39:18.013Z,100510.44
2023-01-28T12:41:50.893Z,100511.31
2023-01-28T12:44:26.827Z,100509.98
2023-01-28T12:47:07.725Z,100508.52
2023-01-28T12:50:17.081Z,100509.44
2023-01-28T12:52:55.600Z,100512.83
2023-01-28T12:55:36.026Z,100517.27
2023-01-28T12:58:05.586Z,100518.67
2023-01-28T13:00:37.124Z,100521.11
2023-01-28T13:03:28.597Z,100520.94
2023-01-28T13:06:18.531Z,100524.61
2023-01-28T13:08:45.004Z,100527.08
2023-01-28T13:11:17.029Z,100532.15
2023-01-28T13:13:46.224Z,100530.84
2023-01-28T13:16:13.899Z,100534.10
2023-01-28T13:18:40.411Z,100536.58
2023-01-28T13:21:24.938Z,100536.17
2023-01-28T13:24:05.213Z,100535.65
2023-01-28T13:26:48.371Z,100540.64
2023-01-28T13:29:14.958Z,100540.14
2023-01-28T13:31:44.481Z,100541.15
2023-01-28T13:34:29.311Z,100543.46
2023-01-28T13:36:59.143Z,100542.16
2023-01-28T13:39:26.798Z,100546.27
2023-01-28T13:42:10.597Z,100546.47
2023-01-28T13:44:38.211Z,100553.87
2023-01-28T13:47:07.517Z,100554.63
2023-01-28T13:49:43.675Z,100554.48
2023-01-28T13:52:29.600Z,100557.84
2023-01-28T13:55:02.310Z,100563.69
2023-01-28T13:58:06.252Z,100565.27
2023-01-28T14:00:32.721Z,100567.38
2023-01-28T14:03:20.875Z,100569.71
2023-01-28T14:06:02.651Z,100571.21
2023-01-28T14:08:29.021Z,100574.73
2023-01-28T14:11:30.453Z,100575.80
2023-01-28T14:14:18.363Z,100579.91
2023-01-28T14:16:55.632Z,100577.09
2023-01-28T14:19:32.693Z,100576.27
2023-01-28T14:21:59.307Z,100580.20
2023-01-28T14:24:27.170Z,100580.27
2023-01-28T14:27:12.080Z,100581.54
2023-01-28T14:29:59.206Z,100585.73
2023-01-28T14:32:28.107Z,100586.63
2023-01-28T14:34:56.846Z,100592.39
2023-01-28T14:37:29.146Z,100591.73
2023-01-28T14:40:17.261Z,100591.63
2023-01-28T14:42:48.041Z,100596.35
2023-01-28T14:45:23.580Z,100597.16
2023-01-28T14:48:02.011Z,100600.88
2023-01-28T14:50:34.950Z,100599.44
2023-01-28T14:53:22.705Z,100601.14
2023-01-28T14:55:58.431Z,100603.04
2023-01-28T14:58:31.597Z,100607.15
2023-01-28T15:01:00.353Z,100611.44
2023-01-28T15:03:29.167Z,100609.97
2023-01-28T15:06:12.403Z,100608.71
2023-01-28T15:08:40.339Z,100612.10
2023-01-28T15:11:10.891Z,100611.88
2023-01-28T15:13:44.676Z,100613.60
2023-01-28T15:16:21.844Z,100613.55
2023-01-28T15:18:49.031Z,100617.52
2023-01-28T15:21:23.637Z,100621.02
2023-01-28T15:23:53.919Z,100627.35
2023-01-28T15:26:24.622Z,100628.00
2023-01-28T15:28:53.066Z,100632.55
2023-01-28T15:31:20.594Z,100638.50
2023-01-28T15:33:56.739Z,100637.77
2023-01-28T15:36:23.355Z,100640.18
2023-01-28T15:38:49.842Z,100643.79
2023-01-28T15:41:20.517Z,100647.17
2023-01-28T15:43:49.190Z,100647.63
2023-01-28T15:46:15.741Z,100651.48
2023-01-28T15:48:46.496Z,100657.90
2023-01-28T15:51:33.305Z,100656.91
2023-01-28T15:54:09.956Z,100660.55
2023-01-28T15:56:36.846Z,100664.55
2023-01-28T15:59:09.613Z,100669.23
2023-01-28T16:01:36.220Z,100678.40
2023-01-28T16:04:20.972Z,100678.58
2023-01-28T16:06:47.874Z,100683.62
2023-01-28T16:09:28.111Z,100686.76
2023-01-28T16:12:02.740Z,100695.73
2023-01-28T16:14:43.711Z,100698.41
2023-01-28T16:17:16.096Z,100699.12
2023-01-28T16:19:46.720Z,100699.77
2023-01-28T16:22:23.438Z,100703.36
2023-01-28T16:24:52.589Z,100707.48
2023-01-28T16:27:24.793Z,100708.98
2023-01-28T16:29:51.457Z,100710.73
2023-01-28T16:32:33.389Z,100709.60
2023-01-28T16:35:00.781Z,100712.16
2023-01-28T16:40:00.398Z,100714.40
2023-01-28T16:42:28.641Z,100716.58
2023-01-28T16:44:55.119Z,100715.42
2023-01-28T16:47:21.650Z,100718.41
2023-01-28T16:49:48.194Z,100723.02
2023-01-28T16:52:15.084Z,100725.98
2023-01-28T16:54:43.402Z,100726.98
2023-01-28T16:57:14.061Z,100727.98
2023-01-28T16:59:40.539Z,100725.17
2023-01-28T17:02:08.777Z,100729.07
2023-01-28T17:04:35.258Z,100724.64
2023-01-28T17:07:01.735Z,100724.73
2023-01-28T17:09:28.272Z,100726.40
2023-01-28T17:11:54.787Z,100730.32
2023-01-28T17:14:21.388Z,100728.08
2023-01-28T17:16:48.121Z,100730.88
2023-01-28T17:19:16.864Z,100728.91
2023-01-28T17:21:43.444Z,100736.44
2023-01-28T17:24:10.212Z,100742.66
2023-01-28T17:26:37.002Z,100746.81
2023-01-28T17:29:07.892Z,100749.01
2023-01-28T17:31:35.649Z,100748.77
2023-01-28T17:34:02.193Z,100756.45
2023-01-28T17:36:28.929Z,100756.98
2023-01-28T17:38:55.733Z,100758.55
2023-01-28T17:41:22.336Z,100763.89
2023-01-28T17:43:53.663Z,100766.46
2023-01-28T17:46:21.718Z,100768.21
2023-01-28T17:48:48.205Z,100772.58
2023-01-28T17:51:15.005Z,100773.49
2023-01-28T17:53:46.001Z,100769.64
2023-01-28T17:56:22.094Z,100775.00
2023-01-28T17:58:53.405Z,100772.95
2023-01-28T18:01:20.915Z,100774.59
2023-01-28T18:03:47.864Z,100776.48
2023-01-28T18:06:14.828Z,100773.70
2023-01-28T18:08:41.446Z,100778.16
2023-01-28T18:11:10.326Z,100785.50
2023-01-28T18:13:40.661Z,100788.73
2023-01-28T18:16:09.390Z,100787.41
2023-01-28T18:18:36.000Z,100793.86
2023-01-28T18:21:04.799Z,100796.50
2023-01-28T18:23:32.300Z,100801.35
2023-01-28T18:26:01.335Z,100800.86
2023-01-28T18:28:28.498Z,100797.44
2023-01-28T18:30:55.093Z,100800.29
2023-01-28T18:33:23.186Z,100797.67
2023-01-28T18:35:49.707Z,100800.19
2023-01-28T18:38:16.454Z,100803.29
2023-01-28T18:40:45.020Z,100806.80
2023-01-28T18:43:12.345Z,100808.14
2023-01-28T18:45:40.534Z,100808.09
2023-01-28T18:48:07.367Z,100811.02
2023-01-28T18:50:34.386Z,100817.02
2023-01-28T18:53:00.983Z,100821.56
2023-01-28T18:55:27.541Z,100823.86
2023-01-28T18:57:56.158Z,100826.99
2023-01-28T19:00:22.828Z,100825.48
2023-01-28T19:02:49.335Z,100826.97
2023-01-28T19:05:16.253Z,100824.86
2023-01-28T19:07:43.120Z,100826.85
2023-01-28T19:10:10.308Z,100827.31
2023-01-28T19:12:36.803Z,100829.21
2023-01-28T19:15:03.544Z,100831.48
2023-01-28T19:17:32.409Z,100829.82
2023-01-28T19:20:00.451Z,100829.80
2023-01-28T19:22:26.934Z,100828.04
2023-01-28T19:24:53.432Z,100832.25
2023-01-28T19:27:19.928Z,100834.23
2023-01-28T19:29:46.565Z,100835.73
2023-01-28T19:32:13.071Z,100835.21
2023-01-28T19:34:39.545Z,100839.70
2023-01-28T19:37:06.081Z,100838.45
2023-01-28T19:39:32.641Z,100840.95
2023-01-28T19:41:59.133Z,100842.87
2023-01-28T19:44:25.765Z,100843.60
2023-01-28T19:46:52.273Z,100846.16
2023-01-28T19:49:18.833Z,100850.98
2023-01-28T19:51:45.364Z,100853.42
2023-01-28T19:54:12.218Z,100854.58
2023-01-28T19:56:38.761Z,100856.20
2023-01-28T19:59:05.875Z,100859.64
2023-01-28T20:01:32.431Z,100861.01
2023-01-28T20:04:00.455Z,100866.26
2023-01-28T20:06:29.971Z,100871.94
2023-01-28T20:09:00.764Z,100874.36
2023-01-28T20:11:27.408Z,100876.39
2023-01-28T20:13:55.776Z,100878.77
2023-01-28T20:16:25.347Z,100876.84
2023-01-28T20:18:54.897Z,100879.14
2023-01-28T20:21:22.146Z,100878.55
2023-01-28T20:23:50.042Z,100879.03
2023-01-28T20:26:17.725Z,100879.73
2023-01-28T20:28:44.475Z,100884.23
2023-01-28T20:31:12.470Z,100884.29
2023-01-28T20:33:39.499Z,100880.69
2023-01-28T20:36:08.658Z,100885.18
2023-01-28T20:38:42.631Z,100885.34
2023-01-28T20:41:14.742Z,100884.96
2023-01-28T20:43:43.434Z,100888.56
2023-01-28T20:46:15.672Z,100891.85
2023-01-28T20:48:42.752Z,100892.76
2023-01-28T20:51:17.686Z,100895.06
2023-01-28T20:53:44.829Z,100897.47
2023-01-28T20:56:12.830Z,100899.45
2023-01-28T20:58:39.491Z,100908.73
2023-01-28T21:01:06.872Z,100907.98
2023-01-28T21:03:33.811Z,100914.31
2023-01-28T21:06:01.037Z,100915.09
2023-01-28T21:08:27.542Z,100916.86
2023-01-28T21:10:54.061Z,100919.84
2023-01-28T21:13:20.576Z,100923.67
2023-01-28T21:15:55.077Z,100923.80
2023-01-28T21:18:22.243Z,100922.87
2023-01-28T21:20:48.932Z,100925.59
2023-01-28T21:23:15.755Z,100926.63
2023-01-28T21:25:43.436Z,100928.72
2023-01-28T21:28:10.820Z,100927.88
2023-01-28T21:30:38.076Z,100927.59
2023-01-28T21:33:04.558Z,100933.90
2023-01-28T21:35:31.177Z,100935.87
2023-01-28T21:37:57.673Z,100935.64
2023-01-28T21:40:24.164Z,100933.81
2023-01-28T21:42:53.714Z,100938.17
2023-01-28T21:45:20.283Z,100938.12
2023-01-28T21:47:47.041Z,100935.07
2023-01-28T21:50:13.896Z,100932.87
2023-01-28T21:52:40.650Z,100935.35
2023-01-28T21:55:07.930Z,100934.66
2023-01-28T21:57:34.471Z,100932.61
2023-01-28T22:00:00.957Z,100935.45
2023-01-28T22:02:27.489Z,100936.38
2023-01-28T22:04:54.000Z,100941.14
2023-01-28T22:07:20.512Z,100939.52
2023-01-28T22:09:47.560Z,100936.16
2023-01-28T22:12:15.294Z,100947.42
2023-01-28T22:14:42.429Z,100941.77
2023-01-28T22:17:09.813Z,100943.65
2023-01-28T22:19:36.867Z,100942.98
2023-01-28T22:22:03.687Z,100944.41
2023-01-28T22:24:30.787Z,100941.88
2023-01-28T22:26:57.552Z,100948.93
2023-01-28T22:29:25.045Z,100948.95
2023-01-28T22:31:53.700Z,100948.48
2023-01-28T22:34:21.616Z,100945.95
2023-01-28T22:36:49.821Z,100941.77
2023-01-28T22:39:17.181Z,100943.48
2023-01-28T22:41:44.702Z,100943.55
2023-01-28T22:44:11.661Z,100945.66
2023-01-28T22:46:38.412Z,100944.38
2023-01-28T22:49:05.529Z,100946.45
2023-01-28T22:51:34.654Z,100948.27
2023-01-28T22:54:01.414Z,100947.30
2023-01-28T22:56:29.923Z,100953.77
2023-01-28T22:58:58.895Z,100958.55
2023-01-28T23:01:26.262Z,100957.69
2023-01-28T23:03:53.267Z,100964.33
2023-01-28T23:06:21.626Z,100960.38
2023-01-28T23:08:49.057Z,100962.27
2023-01-28T23:11:16.451Z,100961.70
2023-01-28T23:13:44.198Z,100961.52
2023-01-28T23:16:10.671Z,100962.86
2023-01-28T23:18:38.177Z,100958.84
2023-01-28T23:21:13.723Z,100960.38
2023-01-28T23:23:40.213Z,100965.34
2023-01-28T23:26:07.171Z,100962.70
2023-01-28T23:28:33.764Z,100968.30
2023-01-28T23:31:00.837Z,100972.52
2023-01-28T23:33:27.456Z,100973.79
2023-01-28T23:35:53.961Z,100966.08
2023-01-28T23:38:20.442Z,100973.15
2023-01-28T23:40:46.979Z,100971.36
2023-01-28T23:43:13.770Z,100977.54
2023-01-28T23:45:40.234Z,100974.05
2023-01-28T23:48:06.820Z,100975.38
2023-01-28T23:50:33.349Z,100974.73
2023-01-28T23:53:00.231Z,100974.70
2023-01-28T23:55:26.844Z,100970.73
2023-01-28T23:57:53.340Z,100969.17
